createdAt,value
2017-08-23T00:03:19.192Z,0.0
2017-08-23T00:13:35.671Z,0.0
2017-08-23T00:23:49.722Z,0.0
2017-08-23T00:34:06.200Z,0.0
2017-08-23T00:44:22.277Z,0.0
2017-08-23T00:54:38.368Z,0.0
2017-08-23T01:04:54.974Z,0.0
2017-08-23T01:15:41.373Z,0.0
2017-08-23T01:25:57.411Z,0.0
2017-08-23T01:36:12.816Z,0.0
2017-08-23T01:46:28.207Z,0.0
2017-08-23T01:56:44.192Z,0.0
2017-08-23T02:06:59.417Z,0.0
2017-08-23T02:17:14.599Z,0.0
2017-08-23T02:27:29.865Z,0.0
2017-08-23T02:37:45.327Z,0.0
2017-08-23T02:48:01.433Z,0.0
2017-08-23T02:58:16.830Z,0.0
2017-08-23T03:08:33.095Z,0.0
2017-08-23T03:18:49.198Z,0.0
2017-08-23T03:29:05.360Z,0.0
2017-08-23T03:39:20.596Z,0.0
2017-08-23T03:49:35.926Z,0.0
2017-08-23T03:59:52.094Z,4.0
2017-08-23T04:10:08.157Z,12.0
2017-08-23T04:20:23.895Z,56.0
2017-08-23T04:30:40.169Z,192.0
2017-08-23T04:40:56.192Z,480.0
2017-08-23T04:51:43.003Z,868.0
2017-08-23T05:01:59.092Z,1312.0
2017-08-23T05:12:15.294Z,1752.0
2017-08-23T05:22:31.836Z,2120.0
2017-08-23T05:32:47.719Z,2432.0
2017-08-23T05:43:03.998Z,2720.0
2017-08-23T05:53:20.714Z,3064.0
2017-08-23T06:03:36.483Z,3424.0
2017-08-23T06:13:52.712Z,3736.0
2017-08-23T06:24:08.875Z,4064.0
2017-08-23T06:34:24.888Z,4468.0
2017-08-23T06:44:41.185Z,4796.0
2017-08-23T06:54:57.588Z,5124.0
2017-08-23T07:05:13.385Z,8584.0
2017-08-23T07:15:28.707Z,10760.0
2017-08-23T07:25:44.921Z,13344.0
2017-08-23T07:36:01.109Z,16256.0
2017-08-23T07:46:17.324Z,17472.0
2017-08-23T07:56:33.803Z,25312.0
2017-08-23T08:06:52.851Z,23648.0
2017-08-23T08:17:08.297Z,31264.0
2017-08-23T08:27:24.529Z,30336.0
2017-08-23T08:37:40.751Z,32800.0
2017-08-23T08:47:57.174Z,37504.0
2017-08-23T08:58:13.078Z,44064.0
2017-08-23T09:08:29.480Z,48544.0
2017-08-23T09:18:45.425Z,42336.0
2017-08-23T09:29:01.936Z,47680.0
2017-08-23T09:39:17.972Z,50080.0
2017-08-23T09:49:34.180Z,42048.0
2017-08-23T09:51:07.364Z,43424.0
2017-08-23T10:01:23.656Z,48928.0
2017-08-23T10:11:40.269Z,57824.0
2017-08-23T10:21:56.247Z,55840.0
2017-08-23T10:32:12.495Z,55712.0
2017-08-23T10:42:28.806Z,57248.0
2017-08-23T10:52:44.907Z,60192.0
2017-08-23T11:03:01.304Z,59040.0
2017-08-23T11:13:17.443Z,60448.0
2017-08-23T11:23:33.525Z,58912.0
2017-08-23T11:33:49.851Z,63264.0
2017-08-23T11:44:06.144Z,60320.0
2017-08-23T11:54:22.273Z,67520.0
2017-08-23T12:04:39.533Z,67648.0
2017-08-23T12:14:57.283Z,53696.0
2017-08-23T12:25:14.474Z,40960.0
2017-08-23T12:35:31.068Z,57696.0
2017-08-23T12:45:48.424Z,53696.0
2017-08-23T12:56:04.788Z,54688.0
2017-08-23T13:06:25.455Z,48384.0
2017-08-23T13:27:00.256Z,35872.0
2017-08-23T13:37:16.547Z,51200.0
2017-08-23T13:47:33.283Z,39744.0
2017-08-23T13:57:49.084Z,20992.0
2017-08-23T14:08:05.216Z,20672.0
2017-08-23T14:18:21.597Z,21696.0
2017-08-23T14:38:57.066Z,23456.0
2017-08-23T14:49:13.531Z,24512.0
2017-08-23T14:59:29.736Z,21536.0
2017-08-23T15:09:46.024Z,17600.0
2017-08-23T15:20:02.136Z,10872.0
2017-08-23T15:30:18.472Z,8596.0
2017-08-23T15:40:34.633Z,6788.0
2017-08-23T15:50:50.782Z,5704.0
2017-08-23T16:01:06.292Z,5348.0
2017-08-23T16:11:52.986Z,4588.0
2017-08-23T16:22:08.221Z,3788.0
2017-08-23T16:32:23.849Z,3436.0
2017-08-23T16:42:39.987Z,4172.0
2017-08-23T17:03:48.616Z,2660.0
2017-08-23T17:14:03.938Z,2380.0
2017-08-23T17:24:20.247Z,2200.0
2017-08-23T17:34:36.542Z,1860.0
2017-08-23T17:44:52.840Z,1452.0
2017-08-23T17:55:08.994Z,1124.0
2017-08-23T18:05:25.375Z,732.0
2017-08-23T18:15:38.794Z,440.0
2017-08-23T18:36:14.267Z,52.0
2017-08-23T18:56:51.914Z,4.0
2017-08-23T19:07:07.920Z,0.0
2017-08-23T19:17:25.221Z,0.0
2017-08-23T19:27:41.535Z,0.0
2017-08-23T19:37:58.731Z,0.0
2017-08-23T19:48:15.044Z,0.0
2017-08-23T19:58:32.045Z,0.0
2017-08-23T20:08:49.421Z,0.0
2017-08-23T20:19:05.986Z,0.0
2017-08-23T20:29:21.802Z,0.0
2017-08-23T20:39:38.019Z,0.0
2017-08-23T20:49:54.526Z,0.0
2017-08-23T21:00:41.161Z,0.0
2017-08-23T21:11:27.843Z,0.0
2017-08-23T21:22:13.856Z,0.0
2017-08-23T21:32:29.971Z,0.0
2017-08-23T21:42:46.092Z,0.0
2017-08-23T21:53:02.571Z,0.0
2017-08-23T22:03:18.862Z,0.0
2017-08-23T22:13:34.859Z,0.0
2017-08-23T22:23:50.933Z,0.0
2017-08-23T22:34:07.010Z,0.0
2017-08-23T22:44:22.310Z,0.0
2017-08-23T22:54:38.901Z,0.0
2017-08-23T23:04:54.806Z,0.0
2017-08-23T23:15:10.906Z,0.0
2017-08-23T23:25:27.542Z,0.0
2017-08-23T23:35:43.700Z,0.0
2017-08-23T23:45:59.515Z,0.0
2017-08-23T23:56:15.730Z,0.0
